Time;durP1;ratioP1;P1;durP2;ratioP2;P2;SDS_P1;SDS_P2;PMS_P1;PMS_P2;Temp;Humidity;BMP_temperature;BMP_pressure;BME280_temperature;BME280_humidity;BME280_pressure;Samples;Min_cycle;Max_cycle;Signal;HPM_P1;HPM_P2
2023/11/12 00:01:49;;;;;;;;;;;;;;;16.92;50.82;99843.66;5097166;28;1078;-48
2023/11/12 00:04:14;;;;;;;;;;;;;;;17.37;49.43;99837.88;5096016;28;1121;-45
2023/11/12 00:06:40;;;;;;;;;;;;;;;16.83;50.26;99834.72;5096552;28;1125;-47
2023/11/12 00:09:06;;;;;;;;;;;;;;;16.59;50.51;99844.72;5096786;28;1461;-46
2023/11/12 00:11:35;;;;;;;;;;;;;;;17.30;49.91;99862.50;5096563;28;1322;-43
2023/11/12 00:14:00;;;;;;;;;;;;;;;17.19;49.55;99858.13;5096529;28;1102;-48
2023/11/12 00:16:27;;;;;;;;;;;;;;;16.83;50.16;99869.25;5095930;28;1906;-49
2023/11/12 00:18:52;;;;;;;;;;;;;;;16.65;51.04;99875.19;5096357;28;1053;-49
2023/11/12 00:21:20;;;;;;;;;;;;;;;17.45;49.09;99878.88;5096070;28;1194;-50
2023/11/12 00:23:46;;;;;;;;;;;;;;;16.94;49.92;99879.75;5096621;28;1128;-50
2023/11/12 00:26:12;;;;;;;;;;;;;;;16.62;50.09;99886.06;5096026;28;1074;-49
2023/11/12 00:28:41;;;;;;;;;;;;;;;16.48;50.58;99901.38;5096271;28;867;-48
2023/11/12 00:31:07;;;;;;;;;;;;;;;17.55;49.02;99897.50;5096313;28;1082;-47
2023/11/12 00:33:32;;;;;;;;;;;;;;;17.31;49.13;99880.13;5096655;28;1027;-47
2023/11/12 00:35:58;;;;;;;;;;;;;;;16.84;50.10;99884.19;5128696;28;1049;-50
2023/11/12 00:38:24;;;;;;;;;;;;;;;16.55;50.41;99892.91;5096290;28;1905;-48
2023/11/12 00:40:49;;;;;;;;;;;;;;;16.45;50.37;99879.59;5129143;27;1140;-47
2023/11/12 00:43:15;;;;;;;;;;;;;;;16.96;50.11;99890.25;5095030;28;1099;-50
2023/11/12 00:45:40;;;;;;;;;;;;;;;17.10;49.51;99884.56;5094796;28;1174;-50
2023/11/12 00:48:07;;;;;;;;;;;;;;;16.67;50.46;99888.31;5096350;28;1176;-50
2023/11/12 00:50:34;;;;;;;;;;;;;;;16.45;50.26;99895.53;5095716;28;1189;-47
2023/11/12 00:52:59;;;;;;;;;;;;;;;16.80;50.76;99898.72;5094685;28;892;-50
2023/11/12 00:55:25;;;;;;;;;;;;;;;17.75;48.09;99904.47;5096433;28;1078;-50
2023/11/12 00:57:50;;;;;;;;;;;;;;;17.07;49.60;99899.91;5100061;28;1992;-50
2023/11/12 01:00:16;;;;;;;;;;;;;;;16.67;50.17;99905.09;5100199;28;1129;-49
2023/11/12 01:02:42;;;;;;;;;;;;;;;16.57;50.12;99907.72;5100523;28;1150;-47
2023/11/12 01:05:07;;;;;;;;;;;;;;;17.36;49.44;99907.13;5099690;28;1162;-49
2023/11/12 01:07:34;;;;;;;;;;;;;;;17.21;49.16;99907.53;5100046;28;970;-48
2023/11/12 01:10:00;;;;;;;;;;;;;;;16.74;49.87;99900.94;5099884;28;1058;-49
2023/11/12 01:12:27;;;;;;;;;;;;;;;16.51;50.51;99910.91;5099900;28;1022;-50
2023/11/12 01:14:53;;;;;;;;;;;;;;;17.28;49.54;99910.50;5098597;28;1111;-51
2023/11/12 01:17:19;;;;;;;;;;;;;;;17.21;48.96;99896.06;5097921;28;2004;-49
2023/11/12 01:19:44;;;;;;;;;;;;;;;16.77;49.92;99894.50;5099695;28;1142;-51
2023/11/12 01:22:11;;;;;;;;;;;;;;;16.57;50.12;99901.56;5099838;28;1223;-47
2023/11/12 01:24:37;;;;;;;;;;;;;;;16.78;50.49;99904.19;5098404;28;1175;-50
2023/11/12 01:27:03;;;;;;;;;;;;;;;17.30;48.85;99911.16;5099447;28;1236;-46
2023/11/12 01:29:29;;;;;;;;;;;;;;;16.79;49.99;99905.84;5098171;28;1170;-49
2023/11/12 01:31:54;;;;;;;;;;;;;;;16.55;50.01;99912.31;5098380;28;1048;-46
2023/11/12 01:34:21;;;;;;;;;;;;;;;17.30;49.33;99907.69;5099351;28;1192;-47
2023/11/12 01:36:47;;;;;;;;;;;;;;;17.15;49.00;99912.56;5099452;28;1905;-50
2023/11/12 01:39:12;;;;;;;;;;;;;;;16.70;49.84;99906.66;5099227;28;1046;-48
2023/11/12 01:41:38;;;;;;;;;;;;;;;16.77;50.20;99911.28;5097816;28;934;-47
2023/11/12 01:44:03;;;;;;;;;;;;;;;17.57;48.27;99914.13;5099071;28;1050;-48
2023/11/12 01:46:29;;;;;;;;;;;;;;;16.96;49.31;99907.03;5100100;28;1173;-42
2023/11/12 01:48:55;;;;;;;;;;;;;;;16.64;49.84;99918.66;5099045;28;1205;-51
2023/11/12 01:51:21;;;;;;;;;;;;;;;16.62;50.24;99915.28;5097784;28;1093;-50
2023/11/12 01:53:48;;;;;;;;;;;;;;;17.54;48.29;99904.63;5132092;27;1110;-50
2023/11/12 01:56:14;;;;;;;;;;;;;;;16.93;49.42;99896.69;5099690;28;1062;-50
2023/11/12 01:58:40;;;;;;;;;;;;;;;16.62;49.97;99894.88;5097303;28;1906;-49
2023/11/12 02:01:05;;;;;;;;;;;;;;;16.44;49.97;99899.13;5097902;28;1165;-50
2023/11/12 02:03:31;;;;;;;;;;;;;;;16.79;50.33;99900.53;5131683;27;1136;-50
2023/11/12 02:05:56;;;;;;;;;;;;;;;17.29;48.64;99892.69;5097386;28;1114;-50
2023/11/12 02:08:22;;;;;;;;;;;;;;;16.74;49.77;99890.31;5096287;28;1087;-50
2023/11/12 02:10:48;;;;;;;;;;;;;;;16.72;50.54;99891.41;5097473;28;1362;-48
2023/11/12 02:13:14;;;;;;;;;;;;;;;17.47;48.22;99895.50;5097116;28;1170;-48
2023/11/12 02:15:39;;;;;;;;;;;;;;;16.91;49.31;99863.25;5098554;28;1086;-50
2023/11/12 02:18:05;;;;;;;;;;;;;;;16.55;49.91;99858.38;5113775;28;1910;-51
2023/11/12 02:20:31;;;;;;;;;;;;;;;16.41;49.86;99884.31;5097270;28;1246;-48
2023/11/12 02:22:56;;;;;;;;;;;;;;;17.18;49.16;99897.19;5098894;28;1122;-49
2023/11/12 02:25:22;;;;;;;;;;;;;;;16.97;49.48;99894.56;5098947;28;1042;-53
2023/11/12 02:27:48;;;;;;;;;;;;;;;16.59;49.78;99897.81;5098388;28;1144;-49
2023/11/12 02:30:13;;;;;;;;;;;;;;;16.40;50.27;99899.41;5096796;28;1463;-48
2023/11/12 02:32:40;;;;;;;;;;;;;;;16.99;49.57;99901.44;5098569;28;1035;-50
2023/11/12 02:35:07;;;;;;;;;;;;;;;17.33;48.21;99891.47;5097088;28;1395;-49
2023/11/12 02:37:33;;;;;;;;;;;;;;;16.76;49.62;99914.94;5096915;28;2013;-51
2023/11/12 02:39:58;;;;;;;;;;;;;;;16.81;49.84;99913.69;5097942;28;1248;-50
2023/11/12 02:42:24;;;;;;;;;;;;;;;17.49;47.75;99923.66;5097426;28;1054;-41
2023/11/12 02:44:49;;;;;;;;;;;;;;;16.93;48.82;99931.22;5131224;27;1078;-48
2023/11/12 02:47:15;;;;;;;;;;;;;;;16.60;49.58;99951.78;5130976;27;1109;-49
2023/11/12 02:49:59;;;;;;;;;;;;;;;16.44;49.69;99955.72;5130748;27;1312;-49
2023/11/12 02:52:25;;;;;;;;;;;;;;;17.54;47.72;99964.94;5098217;28;1115;-48
2023/11/12 02:54:50;;;;;;;;;;;;;;;16.94;48.89;99961.25;5097556;28;955;-50
2023/11/12 02:57:16;;;;;;;;;;;;;;;16.63;49.25;99980.72;5097852;28;1909;-50
2023/11/12 02:59:41;;;;;;;;;;;;;;;17.38;47.96;99975.13;5097639;28;1034;-45
2023/11/12 03:02:07;;;;;;;;;;;;;;;17.28;47.89;99976.09;5096315;28;1356;-47
2023/11/12 03:04:32;;;;;;;;;;;;;;;16.78;49.01;99967.94;5097719;28;1174;-49
2023/11/12 03:06:58;;;;;;;;;;;;;;;16.54;49.32;99974.38;5097445;28;875;-48
2023/11/12 03:09:24;;;;;;;;;;;;;;;16.38;49.45;99966.88;5130332;27;1483;-47
2023/11/12 03:11:50;;;;;;;;;;;;;;;17.45;47.63;99969.28;5097157;28;1140;-44
2023/11/12 03:14:18;;;;;;;;;;;;;;;16.88;48.37;99971.44;5097313;28;1086;-48
2023/11/12 03:16:44;;;;;;;;;;;;;;;16.58;49.33;99972.28;5095698;28;1905;-47
2023/11/12 03:19:10;;;;;;;;;;;;;;;17.10;48.28;99971.44;5097746;28;1077;-49
2023/11/12 03:21:36;;;;;;;;;;;;;;;17.30;47.53;99971.50;5097687;28;1129;-47
2023/11/12 03:24:02;;;;;;;;;;;;;;;16.79;48.75;99984.69;5130608;27;1100;-46
2023/11/12 03:26:27;;;;;;;;;;;;;;;16.53;48.90;99985.97;5095946;28;1153;-49
2023/11/12 03:28:53;;;;;;;;;;;;;;;17.29;47.73;99986.59;5097194;28;1134;-48
2023/11/12 03:31:18;;;;;;;;;;;;;;;17.06;48.02;99988.56;5097064;28;1104;-49
2023/11/12 03:33:44;;;;;;;;;;;;;;;16.64;48.93;99988.53;5097403;28;1090;-50
2023/11/12 03:36:09;;;;;;;;;;;;;;;16.98;48.63;99984.75;5095756;28;1155;-51
2023/11/12 03:38:35;;;;;;;;;;;;;;;17.25;47.41;99994.00;5095789;28;1902;-48
2023/11/12 03:41:01;;;;;;;;;;;;;;;16.77;48.46;99992.78;5096463;28;1045;-51
2023/11/12 03:43:26;;;;;;;;;;;;;;;16.53;48.93;99996.59;5096051;28;1117;-49
2023/11/12 03:45:52;;;;;;;;;;;;;;;16.35;49.20;99996.34;5095775;28;1019;-46
2023/11/12 03:48:17;;;;;;;;;;;;;;;17.41;47.19;100005.09;5096566;28;1195;-45
2023/11/12 03:50:43;;;;;;;;;;;;;;;16.99;48.05;100009.53;5097327;28;1196;-47
2023/11/12 03:53:08;;;;;;;;;;;;;;;16.65;48.50;100008.81;5096327;28;1049;-49
2023/11/12 03:55:34;;;;;;;;;;;;;;;17.35;47.21;100009.16;5096194;28;1145;-45
2023/11/12 03:57:59;;;;;;;;;;;;;;;17.09;47.52;100017.56;5095284;28;1905;-49
2023/11/12 04:00:25;;;;;;;;;;;;;;;16.66;48.19;100020.28;5096810;28;1034;-47
2023/11/12 04:02:51;;;;;;;;;;;;;;;16.52;48.47;100034.72;5096399;28;1153;-49
2023/11/12 04:05:16;;;;;;;;;;;;;;;16.33;48.91;100035.44;5096884;28;1038;-47
2023/11/12 04:07:42;;;;;;;;;;;;;;;17.40;46.90;100025.50;5096376;28;1104;-48
2023/11/12 04:10:07;;;;;;;;;;;;;;;17.02;47.53;100035.81;5095009;28;1086;-49
2023/11/12 04:12:33;;;;;;;;;;;;;;;16.59;48.73;100043.00;5096600;28;1109;-49
2023/11/12 04:14:58;;;;;;;;;;;;;;;17.58;46.47;100046.97;5093384;28;1105;-48
2023/11/12 04:17:24;;;;;;;;;;;;;;;17.15;47.22;100048.91;5085589;28;1982;-48
2023/11/12 04:19:50;;;;;;;;;;;;;;;16.69;48.17;100051.88;5096552;28;1109;-48
2023/11/12 04:22:17;;;;;;;;;;;;;;;16.48;48.54;100055.34;5095129;28;1296;-48
2023/11/12 04:24:42;;;;;;;;;;;;;;;17.48;46.65;100062.91;5089305;28;2639;-48
2023/11/12 04:27:08;;;;;;;;;;;;;;;16.92;47.79;100065.00;5100264;28;2095;-46
2023/11/12 04:29:34;;;;;;;;;;;;;;;16.59;48.13;100070.41;5098442;28;1824;-47
2023/11/12 04:32:03;;;;;;;;;;;;;;;17.13;47.51;100080.94;5106739;28;2329;-41
2023/11/12 04:34:28;;;;;;;;;;;;;;;17.52;46.08;100092.72;5096210;28;1867;-45
2023/11/12 04:36:56;;;;;;;;;;;;;;;16.85;47.81;100095.75;5096119;28;2069;-47
2023/11/12 04:39:22;;;;;;;;;;;;;;;16.62;48.03;100096.69;5094209;28;2145;-46
2023/11/12 04:41:47;;;;;;;;;;;;;;;16.61;48.33;100099.47;5095743;28;1091;-47
2023/11/12 04:44:13;;;;;;;;;;;;;;;17.47;46.47;100089.63;5109540;28;1094;-41
2023/11/12 04:46:38;;;;;;;;;;;;;;;16.94;47.50;100097.59;5086774;28;1225;-46
2023/11/12 04:49:04;;;;;;;;;;;;;;;16.83;47.62;100100.34;5094830;28;912;-46
2023/11/12 04:51:33;;;;;;;;;;;;;;;16.54;48.13;100109.78;5095994;28;1073;-49
2023/11/12 04:53:58;;;;;;;;;;;;;;;17.05;47.51;100109.97;5092194;28;1026;-46
2023/11/12 04:56:24;;;;;;;;;;;;;;;17.28;46.83;100109.84;5085365;28;1901;-44
2023/11/12 04:58:49;;;;;;;;;;;;;;;16.75;47.78;100120.41;5095598;28;1019;-44
2023/11/12 05:01:15;;;;;;;;;;;;;;;16.48;48.56;100128.88;5096032;28;995;-46
2023/11/12 05:03:40;;;;;;;;;;;;;;;16.96;48.00;100142.66;5095412;28;974;-48
2023/11/12 05:06:07;;;;;;;;;;;;;;;17.36;46.68;100146.41;5095512;28;1055;-47
2023/11/12 05:08:32;;;;;;;;;;;;;;;16.77;48.12;100142.38;5104671;28;2234;-48
2023/11/12 05:10:58;;;;;;;;;;;;;;;16.52;48.45;100146.22;5095640;28;1151;-48
2023/11/12 05:13:24;;;;;;;;;;;;;;;17.37;46.96;100156.06;5095702;28;1097;-50
2023/11/12 05:15:49;;;;;;;;;;;;;;;17.11;47.32;100165.31;5095538;28;1185;-47
2023/11/12 05:18:15;;;;;;;;;;;;;;;16.71;48.18;100169.47;5095296;28;1921;-49
2023/11/12 05:20:40;;;;;;;;;;;;;;;16.73;48.61;100180.78;5095929;28;1077;-49
2023/11/12 05:23:06;;;;;;;;;;;;;;;17.58;46.36;100176.47;5095974;28;1050;-48
2023/11/12 05:25:31;;;;;;;;;;;;;;;16.92;47.64;100187.22;5095149;28;1038;-43
2023/11/12 05:27:57;;;;;;;;;;;;;;;16.63;48.17;100193.97;5095695;28;1094;-48
2023/11/12 05:30:25;;;;;;;;;;;;;;;16.41;48.75;100197.56;5095206;28;994;-47
2023/11/12 05:32:51;;;;;;;;;;;;;;;16.77;48.23;100202.63;5095499;28;1505;-46
2023/11/12 05:35:17;;;;;;;;;;;;;;;16.12;48.64;100212.22;5095162;28;1134;-49
2023/11/12 05:37:42;;;;;;;;;;;;;;;15.84;48.17;100206.41;5095181;28;2010;-42
2023/11/12 05:40:08;;;;;;;;;;;;;;;15.67;47.16;100199.75;5095276;28;1135;-45
2023/11/12 05:42:34;;;;;;;;;;;;;;;15.51;46.92;100213.38;5095463;28;1065;-47
2023/11/12 05:44:59;;;;;;;;;;;;;;;15.52;46.43;100223.88;5099057;28;1030;-49
2023/11/12 05:47:25;;;;;;;;;;;;;;;15.39;45.79;100221.31;5098718;28;1265;-47
2023/11/12 05:49:50;;;;;;;;;;;;;;;15.24;45.44;100223.31;5099022;28;1091;-47
2023/11/12 05:52:16;;;;;;;;;;;;;;;15.21;45.79;100230.66;5098772;28;1046;-46
2023/11/12 05:54:41;;;;;;;;;;;;;;;15.16;45.05;100231.00;5098571;28;1684;-46
2023/11/12 05:57:07;;;;;;;;;;;;;;;15.16;45.07;100236.31;5098597;28;1917;-49
2023/11/12 05:59:33;;;;;;;;;;;;;;;15.01;44.95;100241.81;5096062;28;1577;-48
2023/11/12 06:01:58;;;;;;;;;;;;;;;14.97;44.77;100237.69;5098978;28;1070;-44
2023/11/12 06:04:24;;;;;;;;;;;;;;;14.90;44.59;100241.72;5098801;28;1034;-44
2023/11/12 06:06:49;;;;;;;;;;;;;;;14.87;44.58;100250.75;5098303;28;1002;-47
2023/11/12 06:09:15;;;;;;;;;;;;;;;14.83;44.68;100246.63;5098278;28;2080;-42
2023/11/12 06:11:40;;;;;;;;;;;;;;;14.77;44.74;100257.66;5098097;28;1158;-49
2023/11/12 06:14:06;;;;;;;;;;;;;;;14.74;44.12;100268.47;5098432;28;1038;-44
2023/11/12 06:16:31;;;;;;;;;;;;;;;14.71;44.38;100264.25;5081068;28;1980;-46
2023/11/12 06:18:58;;;;;;;;;;;;;;;14.68;44.28;100264.47;5080180;28;1102;-44
2023/11/12 06:21:23;;;;;;;;;;;;;;;14.65;44.21;100260.25;5095047;28;1139;-50
2023/11/12 06:23:49;;;;;;;;;;;;;;;14.60;44.01;100264.19;5097783;28;1017;-47
2023/11/12 06:26:17;;;;;;;;;;;;;;;14.66;43.78;100266.38;5081094;28;1089;-47
2023/11/12 06:28:43;;;;;;;;;;;;;;;14.52;44.17;100270.88;5088004;28;1099;-51
2023/11/12 06:31:08;;;;;;;;;;;;;;;14.52;43.92;100275.31;5093911;28;1121;-48
2023/11/12 06:33:34;;;;;;;;;;;;;;;14.54;43.82;100274.28;5099156;28;1081;-50
2023/11/12 06:36:01;;;;;;;;;;;;;;;14.53;43.46;100280.50;5084432;28;1129;-51
2023/11/12 06:38:26;;;;;;;;;;;;;;;14.39;43.89;100272.72;5088009;28;1902;-47
2023/11/12 06:40:52;;;;;;;;;;;;;;;14.39;43.67;100270.06;5082018;28;1158;-50
2023/11/12 06:43:18;;;;;;;;;;;;;;;14.35;43.83;100273.91;5090008;28;1085;-49
2023/11/12 06:45:43;;;;;;;;;;;;;;;14.30;43.48;100276.84;5095379;28;1134;-51
2023/11/12 06:48:09;;;;;;;;;;;;;;;14.33;43.53;100277.47;5087942;28;1118;-49
2023/11/12 06:50:34;;;;;;;;;;;;;;;14.28;43.35;100282.25;5094954;28;1204;-50
2023/11/12 06:53:00;;;;;;;;;;;;;;;14.30;43.36;100280.34;5097828;28;1069;-51
2023/11/12 06:55:26;;;;;;;;;;;;;;;14.20;43.29;100272.22;5091761;28;1043;-48
2023/11/12 06:57:51;;;;;;;;;;;;;;;14.17;43.45;100279.53;5097319;28;1977;-49
2023/11/12 07:00:17;;;;;;;;;;;;;;;15.04;45.42;100275.16;5079685;28;1244;-50
2023/11/12 07:02:43;;;;;;;;;;;;;;;14.58;45.48;100280.16;5065740;28;1055;-44
2023/11/12 07:05:08;;;;;;;;;;;;;;;14.49;45.03;100281.69;5091312;28;1074;-47
2023/11/12 07:07:34;;;;;;;;;;;;;;;14.32;44.93;100283.75;5068691;28;1321;-47
2023/11/12 07:10:00;;;;;;;;;;;;;;;14.28;44.56;100282.25;5065018;28;1559;-43
2023/11/12 07:12:25;;;;;;;;;;;;;;;14.28;44.39;100284.91;5080883;28;1323;-49
2023/11/12 07:14:51;;;;;;;;;;;;;;;14.22;44.54;100287.97;5089715;28;1265;-49
2023/11/12 07:17:16;;;;;;;;;;;;;;;14.25;43.80;100282.47;5083138;28;1969;-49
2023/11/12 07:19:42;;;;;;;;;;;;;;;14.15;44.04;100287.56;5097311;28;915;-49
2023/11/12 07:22:08;;;;;;;;;;;;;;;14.17;43.70;100285.66;5098182;28;1148;-41
2023/11/12 07:24:35;;;;;;;;;;;;;;;14.10;44.00;100280.94;5097654;28;1065;-39
2023/11/12 07:27:00;;;;;;;;;;;;;;;14.03;43.97;100286.63;5097632;27;1082;-47
2023/11/12 07:29:26;;;;;;;;;;;;;;;14.02;43.85;100292.00;5097142;28;1097;-40
2023/11/12 07:31:53;;;;;;;;;;;;;;;14.00;43.91;100296.56;5097159;28;1353;-41
2023/11/12 07:34:19;;;;;;;;;;;;;;;14.32;44.67;100296.13;5097288;28;1011;-45
2023/11/12 07:36:45;;;;;;;;;;;;;;;15.03;45.78;100292.00;5097371;28;1963;-37
2023/11/12 07:39:12;;;;;;;;;;;;;;;14.44;46.52;100289.09;5096775;28;1145;-41
2023/11/12 07:41:38;;;;;;;;;;;;;;;14.36;45.74;100299.41;5097636;28;1042;-38
2023/11/12 07:44:04;;;;;;;;;;;;;;;14.37;45.27;100306.38;5096849;28;1105;-40
2023/11/12 07:46:29;;;;;;;;;;;;;;;14.23;44.81;100299.41;5087101;28;1308;-42
2023/11/12 07:48:55;;;;;;;;;;;;;;;14.20;44.52;100292.53;5096005;28;1232;-39
2023/11/12 07:51:21;;;;;;;;;;;;;;;14.16;44.48;100293.72;5096926;28;1045;-45
2023/11/12 07:53:48;;;;;;;;;;;;;;;14.12;44.21;100301.00;5097381;28;1131;-42
2023/11/12 07:56:14;;;;;;;;;;;;;;;14.06;44.24;100296.97;5097522;28;843;-39
2023/11/12 07:58:39;;;;;;;;;;;;;;;14.13;44.15;100291.28;5096732;28;1995;-41
2023/11/12 08:01:05;;;;;;;;;;;;;;;14.04;44.19;100298.91;5096764;28;1050;-39
2023/11/12 08:03:33;;;;;;;;;;;;;;;14.07;44.00;100290.75;5095100;28;1038;-39
2023/11/12 08:05:59;;;;;;;;;;;;;;;13.95;43.87;100302.16;5096421;28;1134;-39
2023/11/12 08:08:26;;;;;;;;;;;;;;;14.02;43.85;100303.44;5096620;28;1070;-40
2023/11/12 08:10:53;;;;;;;;;;;;;;;13.95;44.04;100305.66;5096746;28;984;-40
2023/11/12 08:13:19;;;;;;;;;;;;;;;14.84;45.88;100303.09;5096890;28;1160;-38
2023/11/12 08:15:45;;;;;;;;;;;;;;;14.72;46.65;100300.34;5096485;28;1042;-39
2023/11/12 08:18:10;;;;;;;;;;;;;;;14.43;46.09;100303.31;5096942;28;1910;-38
2023/11/12 08:20:36;;;;;;;;;;;;;;;14.29;45.75;100314.84;5094348;28;1300;-39
2023/11/12 08:23:01;;;;;;;;;;;;;;;14.22;45.14;100316.22;5086911;28;1351;-40
2023/11/12 08:25:28;;;;;;;;;;;;;;;14.14;45.15;100322.06;5097022;28;1054;-41
2023/11/12 08:27:53;;;;;;;;;;;;;;;14.17;44.69;100308.63;5096589;28;915;-42
2023/11/12 08:30:19;;;;;;;;;;;;;;;14.10;44.67;100313.50;5096340;28;1109;-42
2023/11/12 08:32:45;;;;;;;;;;;;;;;14.03;44.40;100307.78;5096429;28;1082;-40
2023/11/12 08:35:10;;;;;;;;;;;;;;;14.02;44.08;100306.09;5087432;28;994;-47
2023/11/12 08:37:36;;;;;;;;;;;;;;;14.06;44.10;100304.09;5096141;28;1906;-44
2023/11/12 08:40:02;;;;;;;;;;;;;;;13.99;43.96;100300.16;5096763;28;1138;-47
2023/11/12 08:42:28;;;;;;;;;;;;;;;13.98;43.94;100307.25;5096083;28;1061;-49
2023/11/12 08:44:54;;;;;;;;;;;;;;;13.94;43.88;100316.34;5095920;28;862;-52
2023/11/12 08:47:20;;;;;;;;;;;;;;;14.33;44.96;100316.31;5096052;28;1073;-50
2023/11/12 08:49:45;;;;;;;;;;;;;;;14.68;46.03;100317.44;5096744;28;1042;-46
2023/11/12 08:52:14;;;;;;;;;;;;;;;14.32;46.13;100315.50;5096049;28;1307;-46
2023/11/12 08:54:40;;;;;;;;;;;;;;;14.17;45.67;100313.91;5096635;28;1174;-46
2023/11/12 08:57:05;;;;;;;;;;;;;;;14.01;45.23;100304.41;5096588;28;1914;-50
2023/11/12 08:59:31;;;;;;;;;;;;;;;14.31;45.29;100308.50;5097024;28;1094;-49
2023/11/12 09:01:56;;;;;;;;;;;;;;;15.02;46.10;100314.16;5096206;28;1162;-48
2023/11/12 09:04:22;;;;;;;;;;;;;;;14.49;46.61;100316.09;5096536;28;1270;-45
2023/11/12 09:06:47;;;;;;;;;;;;;;;14.32;45.81;100327.88;5096105;28;1111;-48
2023/11/12 09:09:15;;;;;;;;;;;;;;;14.27;45.58;100324.69;5096226;28;864;-46
2023/11/12 09:11:41;;;;;;;;;;;;;;;14.26;44.90;100331.81;5091041;28;1170;-46
2023/11/12 09:14:07;;;;;;;;;;;;;;;14.16;44.47;100336.03;5087197;28;1094;-48
2023/11/12 09:16:33;;;;;;;;;;;;;;;14.51;45.53;100326.56;5078814;28;1129;-46
2023/11/12 09:18:59;;;;;;;;;;;;;;;15.09;46.48;100323.34;5090971;28;1134;-48
2023/11/12 09:21:26;;;;;;;;;;;;;;;14.63;46.64;100333.63;5083285;28;1116;-47
2023/11/12 09:23:52;;;;;;;;;;;;;;;14.48;45.91;100340.03;5106077;28;1011;-44
2023/11/12 09:26:21;;;;;;;;;;;;;;;14.35;45.44;100337.41;5086417;28;1142;-45
2023/11/12 09:28:47;;;;;;;;;;;;;;;14.28;45.30;100350.22;5099447;28;1101;-45
2023/11/12 09:31:12;;;;;;;;;;;;;;;14.30;44.67;100332.41;5081468;28;1133;-42
2023/11/12 09:33:38;;;;;;;;;;;;;;;14.24;44.17;100330.19;5100808;28;940;-44
2023/11/12 09:36:04;;;;;;;;;;;;;;;14.19;44.16;100328.75;5097165;28;1129;-45
2023/11/12 09:38:29;;;;;;;;;;;;;;;14.32;43.46;100333.16;5088752;28;1898;-48
2023/11/12 09:40:57;;;;;;;;;;;;;;;14.23;43.51;100342.56;5084003;28;1075;-40
2023/11/12 09:43:25;;;;;;;;;;;;;;;14.11;43.80;100320.50;5081066;28;1022;-39
2023/11/12 09:45:54;;;;;;;;;;;;;;;14.13;43.70;100333.59;5067879;28;1042;-39
2023/11/12 09:48:30;;;;;;;;;;;;;;;14.06;43.70;100339.28;5099656;28;1027;-39
2023/11/12 09:50:55;;;;;;;;;;;;;;;14.28;44.60;100337.81;5093173;28;1102;-40
2023/11/12 09:53:21;;;;;;;;;;;;;;;15.08;45.76;100328.75;5089174;28;1054;-45
2023/11/12 09:55:46;;;;;;;;;;;;;;;14.54;46.43;100323.69;5083841;28;1323;-52
2023/11/12 09:58:12;;;;;;;;;;;;;;;14.37;45.68;100322.25;5076702;28;1983;-48
2023/11/12 10:00:38;;;;;;;;;;;;;;;14.32;45.09;100319.94;5092371;28;1010;-48
2023/11/12 10:03:05;;;;;;;;;;;;;;;14.26;44.74;100330.94;5073214;28;2449;-44
2023/11/12 10:05:31;;;;;;;;;;;;;;;15.41;46.11;100327.22;5071421;28;1307;-42
2023/11/12 10:07:56;;;;;;;;;;;;;;;14.86;46.77;100323.22;5072191;28;1243;-46
2023/11/12 10:10:23;;;;;;;;;;;;;;;14.60;46.26;100333.03;5093155;27;1007;-45
2023/11/12 10:12:48;;;;;;;;;;;;;;;14.55;45.20;100334.19;5099115;28;1110;-41
2023/11/12 10:15:14;;;;;;;;;;;;;;;14.37;45.30;100330.19;5098629;28;1007;-41
2023/11/12 10:17:45;;;;;;;;;;;;;;;14.32;45.20;100322.56;5097512;28;1902;-38
2023/11/12 10:20:20;;;;;;;;;;;;;;;14.37;44.26;100327.53;5098536;28;1182;-37
2023/11/12 10:22:46;;;;;;;;;;;;;;;14.29;44.45;100322.78;5098539;28;1236;-38
2023/11/12 10:25:12;;;;;;;;;;;;;;;14.27;44.05;100328.19;5097877;28;1460;-38
2023/11/12 10:28:04;;;;;;;;;;;;;;;14.18;44.18;100320.91;5097828;28;1030;-40
2023/11/12 10:30:30;;;;;;;;;;;;;;;14.08;44.32;100329.47;5095637;28;1187;-38
2023/11/12 10:32:58;;;;;;;;;;;;;;;14.13;43.79;100323.84;5097651;28;1788;-37
2023/11/12 10:35:24;;;;;;;;;;;;;;;14.10;43.94;100324.06;5098136;28;1123;-37
2023/11/12 10:37:54;;;;;;;;;;;;;;;14.04;43.97;100329.78;5097989;28;1916;-39
2023/11/12 10:40:20;;;;;;;;;;;;;;;14.11;43.64;100352.22;5095423;28;1196;-39
2023/11/12 10:42:46;;;;;;;;;;;;;;;13.99;43.98;100356.56;5096669;28;1110;-40
2023/11/12 10:45:11;;;;;;;;;;;;;;;14.03;43.85;100352.75;5097781;28;1159;-41
2023/11/12 10:47:37;;;;;;;;;;;;;;;13.99;43.60;100348.63;5098407;28;1066;-37
2023/11/12 10:50:04;;;;;;;;;;;;;;;13.94;43.76;100354.22;5094083;28;1043;-38
2023/11/12 10:52:30;;;;;;;;;;;;;;;13.98;43.36;100362.78;5096873;28;1097;-40
2023/11/12 10:54:58;;;;;;;;;;;;;;;15.22;45.23;100362.16;5089356;28;1149;-36
2023/11/12 10:57:23;;;;;;;;;;;;;;;14.52;45.75;100366.16;5095898;28;1910;-37
2023/11/12 10:59:49;;;;;;;;;;;;;;;14.37;45.41;100365.44;5098235;28;1042;-38
2023/11/12 11:02:18;;;;;;;;;;;;;;;14.27;45.13;100381.13;5097929;28;1134;-37
2023/11/12 11:04:47;;;;;;;;;;;;;;;14.25;44.50;100383.00;5097413;28;2688;-38
2023/11/12 11:07:13;;;;;;;;;;;;;;;14.15;44.47;100382.81;5096365;28;1028;-37
2023/11/12 11:09:39;;;;;;;;;;;;;;;14.08;44.21;100386.81;5097452;28;1114;-37
2023/11/12 11:12:04;;;;;;;;;;;;;;;14.19;43.67;100380.78;5097679;28;1071;-36
2023/11/12 11:14:32;;;;;;;;;;;;;;;14.00;43.95;100389.97;5097159;28;1078;-37
2023/11/12 11:16:58;;;;;;;;;;;;;;;14.02;43.54;100387.22;5097315;28;1972;-37
2023/11/12 11:19:43;;;;;;;;;;;;;;;14.05;43.51;100374.66;5097083;28;1141;-39
2023/11/12 11:22:26;;;;;;;;;;;;;;;13.88;43.53;100369.66;5097030;28;971;-38
2023/11/12 11:24:52;;;;;;;;;;;;;;;13.88;43.53;100377.59;5097183;28;1089;-37
2023/11/12 11:27:21;;;;;;;;;;;;;;;14.91;45.21;100365.28;5097241;28;1077;-37
2023/11/12 11:30:08;;;;;;;;;;;;;;;14.49;45.81;100376.13;5097188;28;1074;-37
2023/11/12 11:32:34;;;;;;;;;;;;;;;14.24;45.22;100372.53;5096708;28;2435;-37
2023/11/12 11:35:00;;;;;;;;;;;;;;;14.19;44.73;100372.84;5097166;28;1026;-38
2023/11/12 11:37:44;;;;;;;;;;;;;;;14.13;44.33;100378.56;5129497;27;1902;-42
2023/11/12 11:40:28;;;;;;;;;;;;;;;15.11;45.24;100378.88;5096412;28;1134;-37
2023/11/12 11:43:13;;;;;;;;;;;;;;;14.56;45.62;100380.88;5083970;28;995;-38
2023/11/12 11:45:58;;;;;;;;;;;;;;;14.36;45.54;100376.13;5096658;28;1065;-37
2023/11/12 11:48:23;;;;;;;;;;;;;;;14.26;44.88;100381.22;5096556;28;1034;-45
2023/11/12 11:50:49;;;;;;;;;;;;;;;14.23;44.71;100389.38;5096521;28;1166;-38
2023/11/12 11:53:14;;;;;;;;;;;;;;;14.17;44.39;100383.53;5097110;28;1093;-40
2023/11/12 11:55:40;;;;;;;;;;;;;;;14.19;43.90;100391.38;5096642;28;1193;-40
2023/11/12 11:58:07;;;;;;;;;;;;;;;14.14;43.99;100391.69;5095269;28;1905;-39
2023/11/12 12:00:32;;;;;;;;;;;;;;;14.14;43.55;100391.69;5095310;28;1181;-42
2023/11/12 12:03:01;;;;;;;;;;;;;;;14.63;45.02;100391.03;5100964;28;2328;-38
2023/11/12 12:05:30;;;;;;;;;;;;;;;14.72;45.45;100397.47;5095398;28;1100;-38
2023/11/12 12:08:03;;;;;;;;;;;;;;;14.39;45.63;100383.84;5096863;28;1066;-43
2023/11/12 12:10:30;;;;;;;;;;;;;;;14.79;45.91;100389.00;5096281;28;1097;-42
2023/11/12 12:12:56;;;;;;;;;;;;;;;15.15;46.20;100399.72;5095896;28;1053;-46
2023/11/12 12:15:21;;;;;;;;;;;;;;;14.72;46.06;100394.81;5096296;28;1054;-40
2023/11/12 12:17:47;;;;;;;;;;;;;;;14.52;45.51;100390.00;5078209;28;1949;-45
2023/11/12 12:20:13;;;;;;;;;;;;;;;14.50;45.19;100388.38;5075826;28;1102;-39
2023/11/12 12:22:38;;;;;;;;;;;;;;;14.39;44.56;100383.84;5069606;28;972;-42
2023/11/12 12:25:04;;;;;;;;;;;;;;;15.34;46.05;100398.38;5098215;28;1338;-38
2023/11/12 12:27:29;;;;;;;;;;;;;;;14.86;46.09;100396.53;5087575;28;1090;-42
2023/11/12 12:29:55;;;;;;;;;;;;;;;14.68;45.40;100402.16;5074221;28;1026;-41
2023/11/12 12:32:21;;;;;;;;;;;;;;;14.44;45.24;100411.72;5086337;28;1010;-48
2023/11/12 12:34:56;;;;;;;;;;;;;;;14.43;44.86;100409.16;5080907;28;2677;-40
2023/11/12 12:37:30;;;;;;;;;;;;;;;14.42;44.23;100412.75;5084795;28;1898;-40
2023/11/12 12:40:19;;;;;;;;;;;;;;;14.37;44.05;100412.22;5085674;28;1066;-43
2023/11/12 12:42:43;;;;;;;;;;;;;;;14.27;43.91;100409.34;5093746;28;1281;-42
2023/11/12 12:45:15;;;;;;;;;;;;;;;14.20;43.88;100406.28;5083655;28;1189;-39
2023/11/12 12:47:42;;;;;;;;;;;;;;;14.17;43.71;100415.28;5051891;28;964;-38